createdAt,value
2023-05-25T00:01:54.787Z,16.41
2023-05-25T00:04:27.344Z,16.36
2023-05-25T00:06:56.876Z,16.21
2023-05-25T00:09:26.104Z,16.08
2023-05-25T00:11:54.411Z,15.89
2023-05-25T00:14:22.634Z,15.92
2023-05-25T00:16:51.671Z,15.93
2023-05-25T00:19:19.785Z,15.94
2023-05-25T00:21:48.861Z,15.87
2023-05-25T00:24:18.338Z,15.87
2023-05-25T00:26:47.530Z,15.87
2023-05-25T00:29:17.185Z,15.86
2023-05-25T00:31:45.291Z,15.93
2023-05-25T00:34:13.267Z,15.95
2023-05-25T00:36:43.344Z,15.85
2023-05-25T00:39:11.492Z,15.75
2023-05-25T00:41:41.859Z,15.72
2023-05-25T00:44:09.944Z,15.69
2023-05-25T00:46:39.376Z,15.58
2023-05-25T00:49:07.506Z,15.57
2023-05-25T00:51:36.625Z,15.55
2023-05-25T00:54:04.799Z,15.47
2023-05-25T00:56:36.181Z,15.59
2023-05-25T00:59:09.298Z,15.72
2023-05-25T01:01:40.485Z,15.66
2023-05-25T01:04:13.493Z,15.49
2023-05-25T01:06:45.875Z,15.52
2023-05-25T01:09:17.517Z,15.61
2023-05-25T01:11:49.944Z,15.26
2023-05-25T01:14:22.392Z,15.44
2023-05-25T01:16:51.912Z,15.64
2023-05-25T01:19:20.198Z,15.74
2023-05-25T01:21:57.880Z,15.40
2023-05-25T01:24:34.573Z,15.29
2023-05-25T01:27:08.916Z,15.32
2023-05-25T01:29:41.331Z,15.29
2023-05-25T01:32:10.120Z,15.32
2023-05-25T01:34:39.979Z,15.42
2023-05-25T01:37:09.363Z,15.39
2023-05-25T01:39:37.431Z,15.45
2023-05-25T01:42:05.816Z,15.42
2023-05-25T01:44:34.114Z,15.32
2023-05-25T01:47:06.956Z,14.81
2023-05-25T01:49:44.370Z,15.04
2023-05-25T01:52:20.681Z,14.98
2023-05-25T01:54:54.121Z,14.91
2023-05-25T01:57:23.437Z,14.74
2023-05-25T01:59:54.888Z,14.47
2023-05-25T02:02:23.658Z,14.27
2023-05-25T02:04:51.804Z,14.34
2023-05-25T02:07:21.214Z,14.38
2023-05-25T02:09:49.132Z,14.38
2023-05-25T02:12:17.157Z,14.03
2023-05-25T02:14:46.117Z,14.56
2023-05-25T02:17:14.190Z,14.69
2023-05-25T02:19:42.287Z,14.67
2023-05-25T02:22:10.263Z,14.75
2023-05-25T02:24:39.655Z,14.81
2023-05-25T02:27:08.005Z,14.78
2023-05-25T02:29:36.126Z,14.69
2023-05-25T02:32:04.155Z,14.62
2023-05-25T02:34:32.200Z,14.72
2023-05-25T02:37:00.930Z,14.77
2023-05-25T02:39:28.965Z,14.66
2023-05-25T02:41:58.356Z,14.60
2023-05-25T02:44:26.354Z,14.43
2023-05-25T02:46:54.481Z,14.40
2023-05-25T02:49:22.611Z,14.38
2023-05-25T02:51:50.616Z,14.48
2023-05-25T02:54:18.628Z,14.40
2023-05-25T02:56:46.689Z,14.48
2023-05-25T02:59:16.522Z,14.62
2023-05-25T03:01:44.935Z,14.72
2023-05-25T03:04:12.961Z,14.66
2023-05-25T03:06:40.938Z,14.63
2023-05-25T03:09:09.837Z,14.47
2023-05-25T03:11:37.821Z,14.50
2023-05-25T03:14:06.021Z,14.52
2023-05-25T03:16:36.596Z,14.51
2023-05-25T03:19:05.664Z,14.55
2023-05-25T03:21:33.655Z,14.52
2023-05-25T03:24:01.670Z,14.54
2023-05-25T03:26:30.676Z,14.52
2023-05-25T03:28:58.696Z,14.49
2023-05-25T03:31:26.881Z,14.39
2023-05-25T03:33:56.248Z,14.44
2023-05-25T03:36:27.475Z,14.31
2023-05-25T03:41:40.990Z,14.43
2023-05-25T03:44:10.775Z,14.42
2023-05-25T03:46:39.521Z,14.52
2023-05-25T03:49:13.633Z,14.65
2023-05-25T03:51:41.999Z,14.65
2023-05-25T03:54:10.082Z,14.58
2023-05-25T03:56:38.044Z,14.68
2023-05-25T03:59:06.005Z,14.79
2023-05-25T04:01:38.163Z,14.85
2023-05-25T04:04:06.614Z,14.91
2023-05-25T04:06:37.286Z,14.96
2023-05-25T04:09:05.731Z,15.03
2023-05-25T04:11:33.650Z,15.20
2023-05-25T04:14:01.556Z,15.27
2023-05-25T04:16:29.817Z,15.30
2023-05-25T04:18:58.163Z,15.42
2023-05-25T04:21:26.769Z,15.42
2023-05-25T04:23:56.556Z,15.41
2023-05-25T04:26:26.400Z,15.69
2023-05-25T04:28:55.895Z,15.46
2023-05-25T04:31:25.017Z,14.63
2023-05-25T04:33:53.044Z,15.67
2023-05-25T04:36:21.172Z,15.67
2023-05-25T04:38:52.292Z,15.15
2023-05-25T04:41:21.857Z,16.08
2023-05-25T04:44:05.890Z,16.15
2023-05-25T04:46:37.686Z,16.32
2023-05-25T04:49:06.413Z,16.40
2023-05-25T04:51:34.374Z,16.42
2023-05-25T04:54:02.419Z,16.36
2023-05-25T04:56:31.761Z,16.50
2023-05-25T04:58:59.943Z,16.75
2023-05-25T05:01:31.613Z,17.04
2023-05-25T05:03:59.837Z,17.10
2023-05-25T05:06:29.204Z,17.05
2023-05-25T05:08:57.142Z,17.10
2023-05-25T05:11:25.241Z,17.40
2023-05-25T05:13:54.706Z,18.09
2023-05-25T05:16:23.085Z,18.63
2023-05-25T05:18:51.445Z,18.68
2023-05-25T05:21:21.336Z,18.84
2023-05-25T05:23:50.291Z,18.57
2023-05-25T05:26:18.326Z,18.57
2023-05-25T05:28:46.355Z,18.68
2023-05-25T05:31:19.879Z,18.67
2023-05-25T05:33:50.474Z,18.30
2023-05-25T05:36:18.494Z,19.70
2023-05-25T05:38:47.118Z,20.62
2023-05-25T05:41:15.432Z,21.12
2023-05-25T05:43:45.730Z,21.76
2023-05-25T05:46:14.080Z,22.29
2023-05-25T05:48:43.819Z,22.16
2023-05-25T05:51:11.966Z,22.30
2023-05-25T05:53:40.419Z,22.37
2023-05-25T05:56:18.458Z,22.49
2023-05-25T05:58:49.688Z,22.99
2023-05-25T06:01:18.256Z,23.39
2023-05-25T06:03:47.930Z,23.23
2023-05-25T06:06:16.426Z,23.03
2023-05-25T06:08:44.831Z,22.73
2023-05-25T06:11:12.992Z,23.21
2023-05-25T06:13:40.984Z,23.56
2023-05-25T06:16:09.199Z,23.53
2023-05-25T06:18:37.381Z,23.88
2023-05-25T06:21:07.652Z,23.10
2023-05-25T06:23:35.745Z,23.62
2023-05-25T06:26:07.339Z,24.16
2023-05-25T06:28:35.640Z,24.47
2023-05-25T06:31:04.000Z,24.53
2023-05-25T06:33:32.924Z,24.81
2023-05-25T06:36:01.721Z,24.96
2023-05-25T06:38:31.470Z,25.04
2023-05-25T06:41:05.027Z,24.91
2023-05-25T06:43:33.324Z,24.82
2023-05-25T06:46:01.346Z,24.89
2023-05-25T06:48:29.480Z,25.52
2023-05-25T06:50:57.674Z,25.63
2023-05-25T06:53:25.711Z,26.14
2023-05-25T06:55:55.176Z,25.94
2023-05-25T06:58:23.140Z,26.12
2023-05-25T07:00:51.690Z,25.81
2023-05-25T07:03:21.062Z,26.33
2023-05-25T07:08:37.012Z,25.44
2023-05-25T07:11:09.122Z,25.23
2023-05-25T07:13:37.161Z,25.99
2023-05-25T07:16:05.302Z,26.17
2023-05-25T07:18:33.557Z,26.21
2023-05-25T07:21:01.625Z,25.56
2023-05-25T07:23:29.917Z,25.53
2023-05-25T07:25:58.146Z,25.97
2023-05-25T07:28:27.514Z,25.78
2023-05-25T07:30:55.901Z,24.95
2023-05-25T07:33:24.005Z,24.06
2023-05-25T07:35:52.631Z,23.47
2023-05-25T07:38:20.956Z,23.76
2023-05-25T07:40:49.417Z,23.62
2023-05-25T07:43:17.516Z,23.28
2023-05-25T07:45:46.992Z,23.04
2023-05-25T07:48:15.261Z,22.80
2023-05-25T07:50:45.482Z,22.63
2023-05-25T07:53:14.027Z,22.44
2023-05-25T07:55:42.199Z,22.41
2023-05-25T07:58:10.454Z,22.38
2023-05-25T08:00:38.865Z,21.98
2023-05-25T08:03:08.485Z,21.31
2023-05-25T08:05:36.513Z,21.20
2023-05-25T08:08:04.832Z,20.81
2023-05-25T08:10:32.868Z,20.78
2023-05-25T08:13:01.020Z,20.65
2023-05-25T08:15:29.738Z,20.47
2023-05-25T08:17:58.025Z,20.19
2023-05-25T08:20:28.136Z,20.03
2023-05-25T08:22:56.266Z,20.20
2023-05-25T08:25:24.429Z,20.11
2023-05-25T08:27:52.562Z,19.88
2023-05-25T08:30:20.789Z,19.70
2023-05-25T08:32:48.978Z,19.51
2023-05-25T08:35:17.613Z,19.21
2023-05-25T08:37:46.993Z,19.00
2023-05-25T08:40:16.511Z,18.68
2023-05-25T08:42:45.532Z,18.31
2023-05-25T08:45:26.478Z,18.14
2023-05-25T08:48:07.463Z,18.07
2023-05-25T08:50:37.146Z,17.66
2023-05-25T08:53:15.723Z,17.51
2023-05-25T08:55:47.804Z,17.29
2023-05-25T08:58:19.701Z,17.14
2023-05-25T09:00:56.723Z,16.95
2023-05-25T09:03:26.582Z,16.83
2023-05-25T09:05:57.485Z,16.78
2023-05-25T09:08:27.377Z,16.73
2023-05-25T09:10:57.780Z,16.74
2023-05-25T09:13:25.939Z,16.60
2023-05-25T09:15:54.563Z,16.60
2023-05-25T09:18:22.777Z,16.06
2023-05-25T09:20:51.247Z,15.91
2023-05-25T09:23:20.340Z,15.78
2023-05-25T09:25:52.135Z,15.65
2023-05-25T09:30:52.621Z,15.40
2023-05-25T09:33:21.123Z,15.45
2023-05-25T09:35:50.201Z,15.61
2023-05-25T09:38:18.559Z,15.64
2023-05-25T09:40:47.413Z,15.62
2023-05-25T09:43:32.272Z,15.67
2023-05-25T09:46:06.465Z,15.54
2023-05-25T09:48:34.892Z,15.59
2023-05-25T09:51:02.952Z,15.71
2023-05-25T09:53:32.790Z,15.72
2023-05-25T09:56:03.184Z,15.76
2023-05-25T09:58:33.881Z,15.77
2023-05-25T10:01:02.850Z,15.70
2023-05-25T10:03:31.073Z,15.92
2023-05-25T10:05:59.155Z,15.99
2023-05-25T10:08:29.210Z,16.00
2023-05-25T10:10:57.324Z,16.09
2023-05-25T10:13:28.405Z,16.30
2023-05-25T10:15:59.560Z,16.44
2023-05-25T10:18:30.290Z,16.40
2023-05-25T10:21:03.792Z,16.58
2023-05-25T10:23:40.296Z,16.98
2023-05-25T10:26:10.092Z,16.87
2023-05-25T10:28:40.722Z,16.54
2023-05-25T10:31:10.896Z,16.54
2023-05-25T10:33:39.032Z,16.68
2023-05-25T10:36:11.252Z,16.64
2023-05-25T10:38:42.054Z,16.59
2023-05-25T10:41:11.655Z,16.44
2023-05-25T10:43:40.802Z,16.16
2023-05-25T10:46:11.039Z,16.10
2023-05-25T10:48:39.748Z,16.12
2023-05-25T10:51:10.061Z,16.07
2023-05-25T10:53:39.915Z,16.02
2023-05-25T10:56:10.791Z,15.82
2023-05-25T10:58:43.585Z,15.92
2023-05-25T11:01:15.153Z,16.15
2023-05-25T11:03:51.783Z,16.49
2023-05-25T11:06:21.724Z,16.57
2023-05-25T11:08:52.781Z,16.79
2023-05-25T11:11:21.047Z,16.60
2023-05-25T11:13:50.610Z,16.61
2023-05-25T11:16:22.390Z,16.58
2023-05-25T11:18:54.996Z,16.25
2023-05-25T11:21:42.501Z,16.41
2023-05-25T11:24:15.706Z,16.41
2023-05-25T11:26:58.518Z,16.42
2023-05-25T11:29:27.438Z,16.47
2023-05-25T11:31:59.519Z,16.65
2023-05-25T11:34:28.135Z,16.91
2023-05-25T11:36:57.851Z,16.69
2023-05-25T11:39:26.048Z,16.81
2023-05-25T11:41:57.050Z,16.74
2023-05-25T11:44:29.926Z,16.69
2023-05-25T11:47:03.013Z,16.46
2023-05-25T11:49:31.134Z,16.76
2023-05-25T11:51:59.447Z,16.64
2023-05-25T11:54:29.126Z,16.96
2023-05-25T11:57:02.650Z,17.08
2023-05-25T11:59:32.346Z,17.27
2023-05-25T12:02:04.365Z,17.55
2023-05-25T12:04:35.108Z,17.82
2023-05-25T12:07:05.588Z,17.69
2023-05-25T12:09:33.892Z,17.90
2023-05-25T12:12:04.437Z,18.45
2023-05-25T12:14:35.024Z,18.58
2023-05-25T12:17:07.578Z,18.13
2023-05-25T12:19:36.507Z,18.20
2023-05-25T12:22:04.774Z,18.00
2023-05-25T12:24:32.871Z,18.51
2023-05-25T12:27:02.484Z,18.81
2023-05-25T12:29:30.825Z,19.45
2023-05-25T12:32:05.665Z,20.22
2023-05-25T12:34:33.657Z,20.89
2023-05-25T12:37:01.854Z,20.93
2023-05-25T12:39:38.889Z,21.52
2023-05-25T12:42:13.518Z,21.83
2023-05-25T12:44:41.740Z,21.94
2023-05-25T12:47:16.389Z,21.45
2023-05-25T12:49:45.989Z,22.17
2023-05-25T12:52:33.862Z,22.34
2023-05-25T12:55:21.029Z,22.14
2023-05-25T12:57:52.516Z,22.16
2023-05-25T13:00:22.283Z,22.49
2023-05-25T13:02:52.183Z,22.47
2023-05-25T13:05:21.706Z,22.58
2023-05-25T13:07:49.880Z,22.63
2023-05-25T13:10:18.769Z,23.36
2023-05-25T13:12:47.552Z,23.61
2023-05-25T13:15:17.376Z,24.83
2023-05-25T13:17:46.220Z,25.26
2023-05-25T13:20:16.446Z,25.80
2023-05-25T13:22:46.247Z,25.98
2023-05-25T13:25:15.687Z,27.13
2023-05-25T13:27:46.060Z,26.83
2023-05-25T13:30:15.371Z,26.23
2023-05-25T13:32:44.538Z,26.53
2023-05-25T13:35:19.330Z,26.22
2023-05-25T13:37:48.856Z,26.11
2023-05-25T13:40:17.062Z,24.77
2023-05-25T13:42:45.074Z,24.20
2023-05-25T13:45:13.888Z,24.22
2023-05-25T13:47:43.716Z,24.04
2023-05-25T13:50:12.846Z,23.96
2023-05-25T13:52:40.976Z,23.88
2023-05-25T13:55:10.663Z,23.96
2023-05-25T13:57:38.876Z,23.73
2023-05-25T14:00:09.662Z,23.59
2023-05-25T14:02:38.361Z,23.53
2023-05-25T14:05:07.200Z,23.42
2023-05-25T14:07:35.906Z,23.43
2023-05-25T14:10:04.490Z,23.45
2023-05-25T14:12:34.446Z,23.62
2023-05-25T14:15:02.939Z,23.75
2023-05-25T14:17:31.123Z,23.67
2023-05-25T14:19:59.889Z,23.72
2023-05-25T14:22:28.024Z,23.70
2023-05-25T14:24:56.108Z,23.45
2023-05-25T14:27:24.482Z,23.20
2023-05-25T14:29:53.848Z,23.56
2023-05-25T14:32:21.853Z,23.60
2023-05-25T14:34:51.177Z,23.45
2023-05-25T14:37:19.366Z,23.66
2023-05-25T14:39:47.371Z,23.66
2023-05-25T14:42:16.073Z,23.95
2023-05-25T14:44:44.076Z,24.03
2023-05-25T14:47:14.014Z,24.08
2023-05-25T14:49:42.164Z,24.10
2023-05-25T14:52:10.278Z,23.73
2023-05-25T14:54:44.018Z,23.88
2023-05-25T14:57:12.510Z,23.87
2023-05-25T14:59:40.945Z,23.69
2023-05-25T15:02:09.265Z,23.64
2023-05-25T15:04:38.961Z,23.88
2023-05-25T15:07:06.886Z,23.80
2023-05-25T15:09:36.726Z,23.75
2023-05-25T15:12:05.146Z,23.91
2023-05-25T15:14:33.056Z,23.80
2023-05-25T15:17:01.773Z,23.94
2023-05-25T15:19:31.452Z,23.75
2023-05-25T15:22:01.069Z,23.15
2023-05-25T15:24:29.067Z,22.31
2023-05-25T15:26:57.031Z,21.77
2023-05-25T15:29:25.240Z,21.25
2023-05-25T15:31:54.068Z,21.04
2023-05-25T15:34:22.514Z,20.57
2023-05-25T15:36:51.729Z,19.71
2023-05-25T15:39:22.223Z,17.11
2023-05-25T15:41:52.380Z,16.27
2023-05-25T15:44:21.342Z,15.98
2023-05-25T15:46:50.185Z,16.54
2023-05-25T15:49:19.008Z,16.29
2023-05-25T15:51:47.194Z,16.03
2023-05-25T15:54:15.402Z,15.98
2023-05-25T15:56:44.851Z,15.98
2023-05-25T15:59:13.392Z,15.90
2023-05-25T16:01:42.062Z,15.70
2023-05-25T16:04:10.377Z,15.75
2023-05-25T16:06:38.544Z,15.86
2023-05-25T16:09:06.808Z,15.86
2023-05-25T16:11:34.892Z,15.92
2023-05-25T16:14:06.358Z,15.83
2023-05-25T16:16:34.497Z,15.87
2023-05-25T16:19:03.020Z,15.87
2023-05-25T16:21:31.078Z,15.79
2023-05-25T16:23:59.118Z,15.84
2023-05-25T16:26:27.274Z,15.83
2023-05-25T16:28:55.376Z,15.88
2023-05-25T16:31:24.792Z,15.90
2023-05-25T16:33:53.030Z,15.84
2023-05-25T16:36:21.203Z,15.75
2023-05-25T16:38:49.637Z,15.52
2023-05-25T16:41:17.668Z,15.48
2023-05-25T16:43:45.886Z,15.38
2023-05-25T16:46:14.217Z,15.33
2023-05-25T16:48:43.767Z,15.27
2023-05-25T16:51:15.226Z,15.35
2023-05-25T16:53:43.978Z,15.21
2023-05-25T16:56:12.444Z,15.20
2023-05-25T16:58:40.385Z,15.29
2023-05-25T17:01:08.525Z,15.04
2023-05-25T17:03:36.766Z,15.02
2023-05-25T17:06:06.829Z,15.30
2023-05-25T17:08:36.863Z,15.36
2023-05-25T17:11:04.964Z,15.45
2023-05-25T17:13:33.362Z,15.37
2023-05-25T17:16:01.540Z,15.30
2023-05-25T17:18:29.640Z,15.13
2023-05-25T17:20:59.882Z,14.98
2023-05-25T17:23:29.334Z,14.97
2023-05-25T17:25:57.288Z,14.90
2023-05-25T17:28:26.349Z,14.79
2023-05-25T17:30:54.570Z,14.73
2023-05-25T17:33:22.682Z,14.74
2023-05-25T17:35:50.789Z,14.72
2023-05-25T17:38:19.012Z,14.64
2023-05-25T17:40:50.157Z,14.67
2023-05-25T17:43:18.425Z,14.71
2023-05-25T17:45:47.278Z,14.67
2023-05-25T17:48:16.067Z,14.69
2023-05-25T17:50:44.591Z,14.73
2023-05-25T17:53:12.950Z,14.74
2023-05-25T17:55:41.134Z,14.88
2023-05-25T17:58:10.644Z,14.92
2023-05-25T18:00:38.797Z,15.08
2023-05-25T18:03:07.473Z,15.02
2023-05-25T18:05:35.552Z,15.00
2023-05-25T18:08:05.078Z,15.01
2023-05-25T18:10:33.129Z,15.11
2023-05-25T18:13:01.266Z,15.04
2023-05-25T18:15:30.923Z,14.89
2023-05-25T18:18:02.542Z,14.84
2023-05-25T18:20:30.591Z,14.84
2023-05-25T18:22:59.915Z,14.86
2023-05-25T18:25:27.999Z,14.86
2023-05-25T18:27:56.037Z,14.84
2023-05-25T18:30:24.869Z,14.87
2023-05-25T18:32:56.762Z,14.80
2023-05-25T18:35:25.367Z,14.78
2023-05-25T18:37:53.444Z,14.56
2023-05-25T18:40:21.663Z,14.52
2023-05-25T18:42:50.960Z,14.39
2023-05-25T18:45:18.990Z,14.35
2023-05-25T18:47:47.232Z,14.41
2023-05-25T18:50:17.145Z,14.52
2023-05-25T18:52:46.989Z,14.55
2023-05-25T18:55:14.985Z,14.59
2023-05-25T18:57:43.229Z,14.59
2023-05-25T19:00:12.466Z,14.56
2023-05-25T19:02:40.969Z,14.40
2023-05-25T19:05:11.804Z,14.37
2023-05-25T19:07:51.094Z,14.43
2023-05-25T19:10:23.330Z,14.61
2023-05-25T19:12:51.449Z,14.66
2023-05-25T19:15:19.506Z,14.61
2023-05-25T19:17:48.060Z,14.55
2023-05-25T19:20:17.516Z,14.53
2023-05-25T19:22:47.840Z,14.54
2023-05-25T19:25:15.999Z,14.60
2023-05-25T19:27:45.223Z,14.62
2023-05-25T19:30:16.249Z,14.70
2023-05-25T19:32:44.438Z,14.71
2023-05-25T19:35:12.820Z,14.70
2023-05-25T19:37:41.893Z,14.73
2023-05-25T19:40:13.427Z,14.75
2023-05-25T19:42:41.758Z,14.74
2023-05-25T19:45:11.023Z,14.70
2023-05-25T19:47:39.102Z,14.71
2023-05-25T19:50:09.907Z,14.80
2023-05-25T19:52:37.896Z,14.80
2023-05-25T19:55:06.938Z,14.83
2023-05-25T19:57:36.620Z,14.85
2023-05-25T20:00:09.185Z,14.91
2023-05-25T20:02:43.258Z,14.85
2023-05-25T20:05:11.723Z,14.79
2023-05-25T20:07:40.704Z,14.73
2023-05-25T20:10:09.490Z,14.71
2023-05-25T20:12:38.975Z,14.66
2023-05-25T20:15:07.890Z,14.66
2023-05-25T20:17:36.080Z,14.70
2023-05-25T20:20:05.552Z,14.71
2023-05-25T20:22:33.907Z,14.65
2023-05-25T20:25:04.136Z,14.67
2023-05-25T20:27:32.146Z,14.58
2023-05-25T20:30:01.526Z,14.49
2023-05-25T20:32:30.073Z,14.42
2023-05-25T20:34:58.158Z,14.31
2023-05-25T20:37:26.168Z,14.40
2023-05-25T20:39:56.616Z,14.51
2023-05-25T20:42:27.372Z,14.48
2023-05-25T20:44:55.485Z,14.41
2023-05-25T20:47:25.187Z,14.37
2023-05-25T20:49:55.353Z,14.39
2023-05-25T20:52:25.801Z,14.46
2023-05-25T20:54:54.320Z,14.42
2023-05-25T20:57:22.384Z,14.40
2023-05-25T20:59:51.681Z,14.33
2023-05-25T21:02:19.680Z,14.28
2023-05-25T21:04:49.038Z,14.09
2023-05-25T21:07:18.872Z,14.04
2023-05-25T21:09:47.933Z,14.02
2023-05-25T21:12:16.148Z,14.07
2023-05-25T21:14:44.153Z,14.11
2023-05-25T21:17:12.225Z,14.14
2023-05-25T21:19:40.273Z,14.07
2023-05-25T21:22:11.400Z,14.05
2023-05-25T21:24:39.418Z,14.08
2023-05-25T21:27:09.733Z,14.06
2023-05-25T21:29:37.977Z,14.05
2023-05-25T21:32:06.464Z,14.08
2023-05-25T21:34:34.625Z,14.09
2023-05-25T21:37:03.379Z,14.06
2023-05-25T21:39:32.844Z,14.09
2023-05-25T21:42:02.923Z,14.08
2023-05-25T21:44:31.331Z,14.01
2023-05-25T21:46:59.446Z,13.96
2023-05-25T21:49:27.664Z,13.98
2023-05-25T21:51:55.788Z,13.98
2023-05-25T21:54:24.110Z,13.98
2023-05-25T21:56:55.808Z,13.93
2023-05-25T21:59:24.311Z,13.88
2023-05-25T22:01:52.761Z,13.86
2023-05-25T22:04:21.135Z,13.79
2023-05-25T22:06:49.129Z,13.73
2023-05-25T22:09:17.280Z,13.73
2023-05-25T22:11:45.296Z,13.78
2023-05-25T22:14:14.903Z,13.74
2023-05-25T22:16:43.198Z,13.71
2023-05-25T22:19:11.383Z,13.76
2023-05-25T22:21:39.394Z,13.76
2023-05-25T22:24:07.596Z,13.72
2023-05-25T22:26:35.572Z,13.68
2023-05-25T22:29:03.579Z,13.65
2023-05-25T22:31:33.217Z,13.62
2023-05-25T22:34:01.374Z,13.62
2023-05-25T22:36:29.389Z,13.62
2023-05-25T22:38:57.571Z,13.63
2023-05-25T22:41:26.554Z,13.51
2023-05-25T22:43:54.552Z,13.42
2023-05-25T22:46:23.377Z,13.40
2023-05-25T22:48:52.907Z,13.40
2023-05-25T22:51:20.980Z,13.39
2023-05-25T22:53:49.049Z,13.39
2023-05-25T22:56:17.243Z,13.40
2023-05-25T22:58:45.290Z,13.39
2023-05-25T23:01:13.734Z,13.40
2023-05-25T23:03:41.896Z,13.48
2023-05-25T23:06:11.482Z,13.46
2023-05-25T23:08:39.509Z,13.44
2023-05-25T23:11:07.517Z,13.41
2023-05-25T23:13:35.861Z,13.38
2023-05-25T23:16:04.017Z,13.32
2023-05-25T23:18:32.019Z,13.27
2023-05-25T23:21:00.028Z,13.26
2023-05-25T23:23:29.446Z,13.29
2023-05-25T23:25:58.001Z,13.28
2023-05-25T23:28:26.160Z,13.29
2023-05-25T23:30:54.222Z,13.31
2023-05-25T23:33:23.657Z,13.27
2023-05-25T23:35:51.716Z,13.19
2023-05-25T23:38:19.673Z,13.11
2023-05-25T23:40:49.019Z,13.12
2023-05-25T23:43:17.128Z,13.08
2023-05-25T23:45:45.456Z,12.99
2023-05-25T23:48:13.651Z,12.96
2023-05-25T23:50:42.445Z,12.95
2023-05-25T23:53:10.610Z,12.91
2023-05-25T23:55:38.616Z,12.98
2023-05-25T23:58:08.208Z,12.95
